Terminal Aerodrome Forecast
Issued by NWS

Home | Current Version | Previous Version | Graphics & Text | Print | Product List | Glossary On
Versions: 1 2 3 4 5 6 7 8 9 10 11 12 13 14 15 16 17 18 19 20 21 22 23 24 25 26 27 28 29 30 31 32 33 34 35 36 37 38
000
FTUS43 KGRB 241125
TAFATW
TAF
KATW 241125Z 2412/2512 29008KT P6SM SCT050 BKN080
     FM241600 29012G18KT P6SM BKN050
      TEMPO 2420/2423 -SHRA BKN035
     FM242300 29006KT P6SM SCT035 BKN070
      TEMPO 2423/2503 6SM SHRA BKN035=

USA.gov is the U.S. government's official web portal to all federal, state and local government web resources and services.